Hub City, South Dakota
Current Conditions -  °F | °C
As of 4:55 PM on Friday 19 Dec 2014 (Local Time) from KYKN Reporting Station
Overcast Overcast  
Wind Chill: 26°   Ceiling: 1000
Heat Index: 34°   Visibility: 7mi
Dew Point: 28°   Wind: 10mph
Humidity: 81%   Direction: 160°SSE
Pressure: 30.09"   Gusts: NA
Location:  42.8915°N, 96.9263°W
Report Text: KYKN 192255Z AUTO 16009KT 7SM OVC010 01/M02 A3009 RMK AO1
Loading
Personal Weather Stations






























Interactive Weather Map New forecast layout! Learn more

10-Day Weather Forecast

Advertisements
Track Severe Weather on mobile